Elk River — WDE9599 — position and weather

sailwx.info

Track history (hours):
 
Tides and Currents Weather Stations Pressure Air Temp Water Temp Dewpoint Dewpoint Depression Visibility Wind Speed Wind Dir Waves Ship Positions

Elk River

Owner: Vane Line Bunkering, Inc., Philadelphia, PA. More information available from US FCC via Universal Licensing System and Coast Guard Vessel Documentation Center.

Last reported at 2017-Sep-21 15:30 UTC. Time now 2017-Sep-21 15:48 UTC.
Position N 39°54' W 075°08'.

Length 38 m; draft 4.1 m.

Type: Towing. MMSI: 367419080.

Date/timePositionNaut miles runAvg speedWind from/ knotsBaromVisibWave heightAir tempDewpointWater temp
2017-Sep-21 15:30N 39°54' W 075°08'3 5.2
2017-Sep-21 15:01N 39°53' W 075°12'1 1.1
2017-Sep-21 14:30N 39°54' W 075°12'0 0.0
2017-Sep-21 14:00N 39°54' W 075°12'0 0.0
2017-Sep-21 13:31N 39°54' W 075°12'0 0.0
2017-Sep-21 13:01N 39°54' W 075°12'0 0.0
2017-Sep-21 12:30N 39°54' W 075°12'0 0.0
2017-Sep-21 12:00N 39°54' W 075°12'0 0.0
2017-Sep-21 11:30N 39°54' W 075°12'0 0.0
2017-Sep-21 11:00N 39°54' W 075°12'0 0.0
2017-Sep-21 10:31N 39°54' W 075°12'0 0.0
2017-Sep-21 10:00N 39°54' W 075°12'0 0.0
2017-Sep-21 09:31N 39°54' W 075°12'0 0.0
2017-Sep-21 09:01N 39°54' W 075°12'0 0.0
2017-Sep-21 08:31N 39°54' W 075°12'0 0.0
2017-Sep-21 08:00N 39°54' W 075°12'0 0.0
2017-Sep-21 07:30N 39°54' W 075°12'0 0.0
2017-Sep-21 07:01N 39°54' W 075°12'0 0.0
2017-Sep-21 06:30N 39°54' W 075°12'0 0.1
2017-Sep-21 06:00N 39°54' W 075°12'0 0.1
2017-Sep-21 05:30N 39°54' W 075°12'1 3.0
2017-Sep-21 05:01N 39°53' W 075°11'2 4.5
2017-Sep-21 04:31N 39°54' W 075°08'2 3.1
2017-Sep-21 04:00N 39°53' W 075°09'2 4.9
2017-Sep-21 03:31N 39°52' W 075°13'3 5.0
2017-Sep-21 03:00N 39°51' W 075°15'2 4.9
2017-Sep-21 02:30N 39°51' W 075°19'3 5.3
2017-Sep-21 02:00N 39°50' W 075°22'4 8.6
2017-Sep-21 01:30N 39°48' W 075°27'4 8.1
2017-Sep-21 01:00N 39°44' W 075°30'4 7.5
2017-Sep-21 00:31N 39°41' W 075°31'3 6.7
2017-Sep-21 00:00N 39°38' W 075°34'3 5.4
2017-Sep-20 23:30N 39°36' W 075°34'1 2.1
2017-Sep-20 23:00N 39°35' W 075°35'1 1.6
2017-Sep-20 22:30N 39°35' W 075°36'0 0.1
2017-Sep-20 22:00N 39°35' W 075°35'0 0.0
2017-Sep-20 21:30N 39°35' W 075°35'0 0.0
2017-Sep-20 21:00N 39°35' W 075°35'0 0.0
2017-Sep-20 20:30N 39°35' W 075°35'0 0.0
2017-Sep-20 20:00N 39°35' W 075°35'0 0.0
2017-Sep-20 19:30N 39°35' W 075°35'0 0.0
2017-Sep-20 19:00N 39°35' W 075°35'0 0.0
2017-Sep-20 18:30N 39°35' W 075°35'0 0.0
2017-Sep-20 18:00N 39°35' W 075°35'0 0.0
2017-Sep-20 17:30N 39°35' W 075°35'0 0.0
2017-Sep-20 17:00N 39°35' W 075°35'0 0.0
2017-Sep-20 16:30N 39°35' W 075°35'0 0.0
2017-Sep-20 16:00N 39°35' W 075°35'0 0.0
2017-Sep-20 15:30N 39°35' W 075°35'0 0.0
2017-Sep-20 15:00N 39°35' W 075°35'0 0.0
2017-Sep-20 14:00N 39°35' W 075°35'0 0.0
2017-Sep-20 13:30N 39°35' W 075°35'0 0.0
2017-Sep-20 13:00N 39°35' W 075°35'0 0.0
2017-Sep-20 12:30N 39°35' W 075°35'0 0.0
2017-Sep-20 12:00N 39°35' W 075°35'0 0.0
2017-Sep-20 11:30N 39°35' W 075°35'0 0.0
2017-Sep-20 11:00N 39°35' W 075°35'0 0.0
2017-Sep-20 10:30N 39°35' W 075°35'0 0.0
2017-Sep-20 10:00N 39°35' W 075°35'0 0.0
2017-Sep-20 09:30N 39°35' W 075°35'0 0.0
2017-Sep-20 09:00N 39°35' W 075°35'0 0.0
2017-Sep-20 08:30N 39°35' W 075°35'1 1.5
2017-Sep-20 08:00N 39°35' W 075°35'2 4.7
2017-Sep-20 07:30N 39°33' W 075°33'0 0.4
2017-Sep-20 07:00N 39°33' W 075°33'0 0.0
2017-Sep-20 06:30N 39°33' W 075°33'0 0.0
2017-Sep-20 06:00N 39°33' W 075°33'0 0.1
2017-Sep-20 05:30N 39°33' W 075°33'0 0.4
2017-Sep-20 05:00N 39°33' W 075°33'0 0.1
2017-Sep-20 04:30N 39°33' W 075°33'0 0.1
2017-Sep-20 04:00N 39°33' W 075°33'0 0.0
2017-Sep-20 03:30N 39°33' W 075°33'0 0.0
2017-Sep-20 03:00N 39°33' W 075°33'0 0.1
2017-Sep-20 02:30N 39°33' W 075°33'0 0.1
2017-Sep-20 02:00N 39°33' W 075°33'0 0.0
2017-Sep-20 01:30N 39°33' W 075°33'0 0.0
2017-Sep-20 01:00N 39°33' W 075°33'0 0.0
2017-Sep-20 00:30N 39°33' W 075°33'0 0.2
2017-Sep-20 00:00N 39°33' W 075°33'0 0.3
2017-Sep-19 23:30N 39°33' W 075°33'0 0.0
2017-Sep-19 23:00N 39°33' W 075°33'0 0.0
2017-Sep-19 22:30N 39°33' W 075°33'0 0.0
2017-Sep-19 22:00N 39°33' W 075°33'0 0.0
2017-Sep-19 21:30N 39°33' W 075°33'0 0.0
2017-Sep-19 21:00N 39°33' W 075°33'0 0.0
2017-Sep-19 20:30N 39°33' W 075°33'0 0.0
2017-Sep-19 20:00N 39°33' W 075°33'0 0.0
2017-Sep-19 19:30N 39°33' W 075°33'0 0.0
2017-Sep-19 19:00N 39°33' W 075°33'0 0.1
2017-Sep-19 18:30N 39°33' W 075°33'0 0.0
2017-Sep-19 18:00N 39°33' W 075°33'0 0.1
2017-Sep-19 17:30N 39°33' W 075°33'0 0.3
2017-Sep-19 17:00N 39°33' W 075°33'0 0.2
2017-Sep-19 16:30N 39°33' W 075°33'0 0.1
2017-Sep-19 16:00N 39°33' W 075°33'0 0.0
2017-Sep-19 15:30N 39°33' W 075°33'0 0.0
2017-Sep-19 15:00N 39°33' W 075°33'0 0.1
2017-Sep-19 14:30N 39°33' W 075°33'1 2.1
2017-Sep-19 14:00N 39°34' W 075°33'2 4.9
2017-Sep-19 13:30N 39°36' W 075°34'2 4.5
2017-Sep-19 13:00N 39°38' W 075°34'3 5.7
2017-Sep-19 12:30N 39°41' W 075°31'3 6.7
2017-Sep-19 12:00N 39°44' W 075°30'4 7.6
2017-Sep-19 11:30N 39°47' W 075°28'4 8.3
2017-Sep-19 11:00N 39°49' W 075°23'4 8.3
2017-Sep-19 10:30N 39°51' W 075°18'1 3.0
2017-Sep-19 10:01N 39°51' W 075°16'4 8.3
2017-Sep-19 09:30N 39°54' W 075°12'0 0.0
2017-Sep-19 09:01N 39°54' W 075°12'0 0.0
2017-Sep-19 08:30N 39°54' W 075°12'0 0.0
2017-Sep-19 08:01N 39°54' W 075°12'0 0.0
2017-Sep-19 07:30N 39°54' W 075°12'0 0.0
2017-Sep-19 07:00N 39°54' W 075°12'0 0.0
2017-Sep-19 06:30N 39°54' W 075°12'0 0.0
2017-Sep-19 06:00N 39°54' W 075°12'0 0.0
2017-Sep-19 05:31N 39°54' W 075°12'0 0.0
2017-Sep-19 05:00N 39°54' W 075°12'0 0.0
2017-Sep-19 04:30N 39°54' W 075°12'0 0.0
2017-Sep-19 04:00N 39°54' W 075°12'0 0.0
2017-Sep-19 03:31N 39°54' W 075°12'0 0.0
2017-Sep-19 03:00N 39°54' W 075°12'0 0.0
2017-Sep-19 02:30N 39°54' W 075°12'0 0.0
2017-Sep-19 02:00N 39°54' W 075°12'0 0.0
2017-Sep-19 01:30N 39°54' W 075°12'0 0.0
2017-Sep-19 01:00N 39°54' W 075°12'0 0.0
2017-Sep-19 00:31N 39°54' W 075°12'0 0.0
2017-Sep-19 00:00N 39°54' W 075°12'0 0.0
2017-Sep-18 23:30N 39°54' W 075°12'0 0.0
2017-Sep-18 23:00N 39°54' W 075°12'0 0.0
2017-Sep-18 22:30N 39°54' W 075°12'0 0.0
2017-Sep-18 22:00N 39°54' W 075°12'0 0.0
2017-Sep-18 21:31N 39°54' W 075°12'1 2.1
2017-Sep-18 21:00N 39°53' W 075°12'4 7.1
2017-Sep-18 20:30N 39°51' W 075°16'0 0.3
2017-Sep-18 20:01N 39°51' W 075°16'3 5.2
2017-Sep-18 19:30N 39°52' W 075°13'0 0.2
2017-Sep-18 19:00N 39°52' W 075°13'0 0.0
2017-Sep-18 18:30N 39°52' W 075°13'0 0.1
2017-Sep-18 18:00N 39°52' W 075°13'0 0.3
2017-Sep-18 17:30N 39°52' W 075°13'0 0.1
2017-Sep-18 17:01N 39°52' W 075°13'0 0.0
2017-Sep-18 16:30N 39°52' W 075°13'0 0.0
2017-Sep-18 16:00N 39°52' W 075°13'0 0.0
2017-Sep-18 15:30N 39°52' W 075°13'0 0.0
2017-Sep-18 15:00N 39°52' W 075°13'0 0.0
2017-Sep-18 14:30N 39°52' W 075°13'0 0.0
2017-Sep-18 14:00N 39°52' W 075°13'0 0.0
2017-Sep-18 13:30N 39°52' W 075°13'0 0.3
2017-Sep-18 13:00N 39°52' W 075°13'0 0.1
2017-Sep-18 12:31N 39°52' W 075°13'0 0.0
2017-Sep-18 12:01N 39°52' W 075°13'0 0.0
2017-Sep-18 11:30N 39°52' W 075°13'0 0.0
2017-Sep-18 11:00N 39°52' W 075°13'0 0.0
2017-Sep-18 10:30N 39°52' W 075°13'0 0.0
2017-Sep-18 10:00N 39°52' W 075°13'0 0.0
2017-Sep-18 09:31N 39°52' W 075°13'0 0.0
2017-Sep-18 09:01N 39°52' W 075°13'0 0.0
2017-Sep-18 08:30N 39°52' W 075°13'0 0.0
2017-Sep-18 08:00N 39°52' W 075°13'0 0.0
2017-Sep-18 07:31N 39°52' W 075°13'0 0.0
2017-Sep-18 07:00N 39°52' W 075°13'0 0.0
2017-Sep-18 06:31N 39°52' W 075°13'0 0.0
2017-Sep-18 06:00N 39°52' W 075°13'0 0.1
2017-Sep-18 05:31N 39°52' W 075°13'0 0.3
2017-Sep-18 05:01N 39°52' W 075°13'0 0.1
2017-Sep-18 04:30N 39°52' W 075°13'0 0.0
2017-Sep-18 04:00N 39°52' W 075°13'0 0.0
2017-Sep-18 03:31N 39°52' W 075°13'0 0.0
2017-Sep-18 03:00N 39°52' W 075°13'0 0.0
2017-Sep-18 02:30N 39°52' W 075°13'0 0.0
2017-Sep-18 02:01N 39°52' W 075°13'0 0.0
2017-Sep-18 01:30N 39°52' W 075°13'0 0.0
2017-Sep-18 01:00N 39°52' W 075°13'0 0.0
2017-Sep-18 00:30N 39°52' W 075°13'0 0.1
2017-Sep-18 00:01N 39°52' W 075°13'0 0.2
2017-Sep-17 23:30N 39°52' W 075°13'0 0.1
2017-Sep-17 23:00N 39°52' W 075°13'0 0.0
2017-Sep-17 22:30N 39°52' W 075°13'0 0.0
2017-Sep-17 22:00N 39°52' W 075°13'0 0.0
2017-Sep-17 21:30N 39°52' W 075°13'0 0.0
2017-Sep-17 21:00N 39°52' W 075°13'0 0.0
2017-Sep-17 20:30N 39°52' W 075°13'0 0.1
2017-Sep-17 20:00N 39°52' W 075°13'0 0.0
2017-Sep-17 19:30N 39°52' W 075°13'0 0.0
2017-Sep-17 19:00N 39°52' W 075°13'0 0.0
2017-Sep-17 18:30N 39°52' W 075°13'0 0.0
2017-Sep-17 18:00N 39°52' W 075°13'0 0.0
2017-Sep-17 17:30N 39°52' W 075°13'0 0.0
2017-Sep-17 17:00N 39°52' W 075°13'0 0.3
2017-Sep-17 16:30N 39°52' W 075°13'0 0.1
2017-Sep-17 16:00N 39°52' W 075°13'0 0.0
2017-Sep-17 15:30N 39°52' W 075°13'0 0.0
2017-Sep-17 15:00N 39°52' W 075°13'0 0.0
2017-Sep-17 14:31N 39°52' W 075°13'0 0.0
2017-Sep-17 14:01N 39°52' W 075°13'0 0.0
2017-Sep-17 13:30N 39°52' W 075°13'0 0.0
2017-Sep-17 13:00N 39°52' W 075°13'0 0.0
2017-Sep-17 12:30N 39°52' W 075°13'0 0.0
2017-Sep-17 12:01N 39°52' W 075°13'0 0.2
2017-Sep-17 11:30N 39°52' W 075°13'0 0.1
2017-Sep-17 11:01N 39°52' W 075°13'0 0.0
2017-Sep-17 10:31N 39°52' W 075°13'0 0.1
2017-Sep-17 10:00N 39°52' W 075°13'0 0.0
2017-Sep-17 09:31N 39°52' W 075°13'0 0.0
2017-Sep-17 09:00N 39°52' W 075°13'0 0.0
2017-Sep-17 08:30N 39°52' W 075°13'0 0.0
2017-Sep-17 08:01N 39°52' W 075°13'0 0.0
2017-Sep-17 07:30N 39°52' W 075°13'0 0.0
2017-Sep-17 07:01N 39°52' W 075°13'0 0.0
2017-Sep-17 06:31N 39°52' W 075°13'0 0.1
2017-Sep-17 06:01N 39°52' W 075°13'0 0.1
2017-Sep-17 05:30N 39°52' W 075°13'0 0.0
2017-Sep-17 05:01N 39°52' W 075°13'0 0.2
2017-Sep-17 04:31N 39°52' W 075°13'0 0.1
2017-Sep-17 04:00N 39°52' W 075°13'0 0.0
2017-Sep-17 03:30N 39°52' W 075°13'0 0.0
2017-Sep-17 03:00N 39°52' W 075°13'0 0.0
2017-Sep-17 02:30N 39°52' W 075°13'0 0.0
2017-Sep-17 02:00N 39°52' W 075°13'0 0.0
2017-Sep-17 01:31N 39°52' W 075°13'0 0.0
2017-Sep-17 01:00N 39°52' W 075°13'0 0.0
2017-Sep-17 00:31N 39°52' W 075°13'0 0.1
2017-Sep-17 00:01N 39°52' W 075°13'0 0.1
2017-Sep-16 23:30N 39°52' W 075°13'0 0.2
2017-Sep-16 23:00N 39°52' W 075°13'0 0.1
2017-Sep-16 22:31N 39°52' W 075°13'0 0.2
2017-Sep-16 22:00N 39°52' W 075°13'0 0.1
2017-Sep-16 21:30N 39°52' W 075°13'0 0.0
2017-Sep-16 21:00N 39°52' W 075°13'0 0.0
2017-Sep-16 20:30N 39°52' W 075°13'0 0.0
2017-Sep-16 20:00N 39°52' W 075°13'0 0.0
2017-Sep-16 19:30N 39°52' W 075°13'0 0.0
2017-Sep-16 19:00N 39°52' W 075°13'0 0.0
2017-Sep-16 18:30N 39°52' W 075°13'0 0.0
2017-Sep-16 18:00N 39°52' W 075°13'0 0.0
2017-Sep-16 17:30N 39°52' W 075°13'0 0.0
2017-Sep-16 17:00N 39°52' W 075°13'0 0.5
2017-Sep-16 16:30N 39°52' W 075°14'0 0.2
2017-Sep-16 16:00N 39°52' W 075°13'0 0.2
2017-Sep-16 15:30N 39°52' W 075°13'0 0.1
2017-Sep-16 15:00N 39°52' W 075°13'0 0.0
2017-Sep-16 14:30N 39°52' W 075°13'0 0.0
2017-Sep-16 14:01N 39°52' W 075°13'0 0.0
2017-Sep-16 13:30N 39°52' W 075°13'0 0.0
2017-Sep-16 13:00N 39°52' W 075°13'0 0.0
2017-Sep-16 12:30N 39°52' W 075°13'0 0.1
2017-Sep-16 12:01N 39°52' W 075°13'0 0.0
2017-Sep-16 11:30N 39°52' W 075°13'0 0.0
2017-Sep-16 11:01N 39°52' W 075°13'0 0.3
2017-Sep-16 10:31N 39°52' W 075°14'0 0.1
2017-Sep-16 10:01N 39°52' W 075°14'0 0.0
2017-Sep-16 09:31N 39°52' W 075°14'0 0.0
2017-Sep-16 09:01N 39°52' W 075°14'0 0.0
2017-Sep-16 08:31N 39°52' W 075°14'0 0.0
2017-Sep-16 08:01N 39°52' W 075°14'0 0.0
2017-Sep-16 07:31N 39°52' W 075°14'0 0.0
2017-Sep-16 07:01N 39°52' W 075°14'0 0.0
2017-Sep-16 06:30N 39°52' W 075°14'0 0.0
2017-Sep-16 06:00N 39°52' W 075°14'0 0.0
2017-Sep-16 05:31N 39°52' W 075°14'0 0.0
2017-Sep-16 05:00N 39°52' W 075°14'0 0.0
2017-Sep-16 04:30N 39°52' W 075°14'0 0.1
2017-Sep-16 04:00N 39°52' W 075°14'0 0.2
2017-Sep-16 03:30N 39°52' W 075°13'0 0.1
2017-Sep-16 03:01N 39°52' W 075°13'0 0.0
2017-Sep-16 02:30N 39°52' W 075°13'0 0.0
2017-Sep-16 02:01N 39°52' W 075°13'0 0.0
2017-Sep-16 01:31N 39°52' W 075°13'0 0.0
2017-Sep-16 01:00N 39°52' W 075°13'0 0.0
2017-Sep-16 00:30N 39°52' W 075°13'0 0.0
2017-Sep-16 00:01N 39°52' W 075°13'0 0.0
2017-Sep-15 23:30N 39°52' W 075°13'0 0.0
2017-Sep-15 23:00N 39°52' W 075°13'0 0.0
2017-Sep-15 22:30N 39°52' W 075°13'1 2.8
2017-Sep-15 22:01N 39°53' W 075°12'1 1.9
2017-Sep-15 21:30N 39°54' W 075°12'0 0.2
2017-Sep-15 21:00N 39°54' W 075°12'0 0.0
2017-Sep-15 20:30N 39°54' W 075°12'0 0.0
2017-Sep-15 20:00N 39°54' W 075°12'0 0.0
2017-Sep-15 19:30N 39°54' W 075°12'0 0.0
2017-Sep-15 19:00N 39°54' W 075°12'0 0.0
2017-Sep-15 18:30N 39°54' W 075°12'0 0.0
2017-Sep-15 18:00N 39°54' W 075°12'0 0.0
2017-Sep-15 17:30N 39°54' W 075°12'0 0.0
2017-Sep-15 17:01N 39°54' W 075°12'0 0.0
2017-Sep-15 16:30N 39°54' W 075°12'0 0.0
2017-Sep-15 16:00N 39°54' W 075°12'0 0.0
2017-Sep-15 15:30N 39°54' W 075°12'0 0.0
2017-Sep-15 15:01N 39°54' W 075°12'0 0.0
2017-Sep-15 14:30N 39°54' W 075°12'0 0.0
2017-Sep-15 14:00N 39°54' W 075°12'0 0.0
2017-Sep-15 13:30N 39°54' W 075°12'0 0.0
2017-Sep-15 13:00N 39°54' W 075°12'0 0.0
2017-Sep-15 12:30N 39°54' W 075°12'0 0.0
2017-Sep-15 12:01N 39°54' W 075°12'0 0.0
2017-Sep-15 11:30N 39°54' W 075°12'0 0.0
2017-Sep-15 11:00N 39°54' W 075°12'0 0.0
2017-Sep-15 10:31N 39°54' W 075°12'0 0.0
2017-Sep-15 10:00N 39°54' W 075°12'0 0.0
2017-Sep-15 09:30N 39°54' W 075°12'0 0.0
2017-Sep-15 09:00N 39°54' W 075°12'0 0.2
2017-Sep-15 08:31N 39°54' W 075°12'0 0.1
2017-Sep-15 08:00N 39°54' W 075°12'0 0.2
2017-Sep-15 07:30N 39°54' W 075°12'0 0.0
2017-Sep-15 07:00N 39°54' W 075°12'0 0.0
2017-Sep-15 06:31N 39°54' W 075°12'0 0.0
2017-Sep-15 06:00N 39°54' W 075°12'0 0.0
2017-Sep-15 05:30N 39°54' W 075°12'0 0.0
2017-Sep-15 04:58N 39°54' W 075°12'0 0.0
2017-Sep-15 04:29N 39°54' W 075°12'0 0.0
2017-Sep-15 04:00N 39°54' W 075°12'0 0.0
2017-Sep-15 03:30N 39°54' W 075°12'0 0.0
2017-Sep-15 03:00N 39°54' W 075°12'0 0.0
2017-Sep-15 02:30N 39°54' W 075°12'0 0.0
2017-Sep-15 02:00N 39°54' W 075°12'0 0.0
2017-Sep-15 01:30N 39°54' W 075°12'0 0.0
2017-Sep-15 01:00N 39°54' W 075°12'0 0.0
2017-Sep-15 00:30N 39°54' W 075°12'0 0.0
2017-Sep-15 00:00N 39°54' W 075°12'0 0.0
2017-Sep-14 23:30N 39°54' W 075°12'0 0.0
2017-Sep-14 23:00N 39°54' W 075°12'0 0.0
2017-Sep-14 22:30N 39°54' W 075°12'0 0.0
2017-Sep-14 22:00N 39°54' W 075°12'0 0.0
2017-Sep-14 21:30N 39°54' W 075°12'0 0.0
2017-Sep-14 21:00N 39°54' W 075°12'0 0.0
2017-Sep-14 20:30N 39°54' W 075°12'0 0.0
2017-Sep-14 20:00N 39°54' W 075°12'0 0.0
2017-Sep-14 19:30N 39°54' W 075°12'0 0.0
2017-Sep-14 19:00N 39°54' W 075°12'0 0.0
2017-Sep-14 18:30N 39°54' W 075°12'0 0.0
2017-Sep-14 18:00N 39°54' W 075°12'0 0.0
2017-Sep-14 17:30N 39°54' W 075°12'0 0.0
2017-Sep-14 17:00N 39°54' W 075°12'0 0.0
2017-Sep-14 16:30N 39°54' W 075°12'0 0.0
2017-Sep-14 16:00N 39°54' W 075°12'0 0.0
2017-Sep-14 15:30N 39°54' W 075°12'0 0.0
2017-Sep-14 15:00N 39°54' W 075°12'0 0.0
2017-Sep-14 14:30N 39°54' W 075°12'0 0.0
2017-Sep-14 14:01N 39°54' W 075°12'0 0.0
2017-Sep-14 13:30N 39°54' W 075°12'0 0.0
2017-Sep-14 13:00N 39°54' W 075°12'0 0.1
2017-Sep-14 12:30N 39°54' W 075°12'0 0.0
2017-Sep-14 12:01N 39°54' W 075°12'0 0.0
2017-Sep-14 11:30N 39°54' W 075°12'0 0.2
2017-Sep-14 11:00N 39°54' W 075°12'2 4.5
2017-Sep-14 10:31N 39°52' W 075°13'0 0.1
2017-Sep-14 10:01N 39°52' W 075°13'0 0.0
2017-Sep-14 09:31N 39°52' W 075°13'0 0.0
2017-Sep-14 09:00N 39°52' W 075°13'0 0.0
2017-Sep-14 08:30N 39°52' W 075°13'0 0.3
2017-Sep-14 08:00N 39°52' W 075°14'0 0.1
2017-Sep-14 07:30N 39°52' W 075°14'0 0.0
2017-Sep-14 07:00N 39°52' W 075°14'0 0.0
2017-Sep-14 06:30N 39°52' W 075°14'0 0.0
2017-Sep-14 06:01N 39°52' W 075°14'0 0.0
2017-Sep-14 05:30N 39°52' W 075°14'0 0.0
2017-Sep-14 05:01N 39°52' W 075°14'0 0.0
2017-Sep-14 04:30N 39°52' W 075°14'0 0.0
2017-Sep-14 04:00N 39°52' W 075°14'0 0.0
2017-Sep-14 03:31N 39°52' W 075°14'0 0.0
2017-Sep-14 03:00N 39°52' W 075°14'0 0.0
2017-Sep-14 02:31N 39°52' W 075°14'0 0.0
2017-Sep-14 02:00N 39°52' W 075°14'0 0.1
2017-Sep-14 01:31N 39°52' W 075°14'0 0.2
2017-Sep-14 01:01N 39°52' W 075°13'0 0.1
2017-Sep-14 00:30N 39°52' W 075°13'0 0.0
2017-Sep-14 00:01N 39°52' W 075°13'0 0.0
2017-Sep-13 23:30N 39°52' W 075°13'0 0.0
2017-Sep-13 23:00N 39°52' W 075°13'0 0.0
2017-Sep-13 22:31N 39°52' W 075°13'0 0.0
2017-Sep-13 22:00N 39°52' W 075°13'0 0.0
2017-Sep-13 21:31N 39°52' W 075°13'0 0.0
2017-Sep-13 21:00N 39°52' W 075°13'0 0.0
2017-Sep-13 20:31N 39°52' W 075°13'0 0.1
2017-Sep-13 20:00N 39°52' W 075°13'0 0.0
2017-Sep-13 19:30N 39°52' W 075°13'0 0.3
2017-Sep-13 19:01N 39°52' W 075°14'0 0.1
2017-Sep-13 18:31N 39°52' W 075°14'0 0.0
2017-Sep-13 18:00N 39°52' W 075°14'0 0.0
2017-Sep-13 17:30N 39°52' W 075°14'0 0.0
2017-Sep-13 17:00N 39°52' W 075°14'0 0.0
2017-Sep-13 16:31N 39°52' W 075°14'0 0.1
2017-Sep-13 16:01N 39°52' W 075°14'0 0.0
2017-Sep-13 15:31N 39°52' W 075°14'0 0.1
2017-Sep-13 15:01N 39°52' W 075°14'0 0.0
2017-Sep-13 14:31N 39°52' W 075°14'0 0.1
2017-Sep-13 14:01N 39°52' W 075°14'0 0.0
2017-Sep-13 13:31N 39°52' W 075°14'0 0.1
2017-Sep-13 13:00N 39°52' W 075°14'0 0.2
2017-Sep-13 12:30N 39°52' W 075°13'0 0.1
2017-Sep-13 12:00N 39°52' W 075°13'0 0.0
2017-Sep-13 11:30N 39°52' W 075°13'0 0.0
2017-Sep-13 11:01N 39°52' W 075°13'0 0.0
2017-Sep-13 10:31N 39°52' W 075°13'0 0.0
2017-Sep-13 10:01N 39°52' W 075°13'0 0.0
2017-Sep-13 09:30N 39°52' W 075°13'0 0.0
2017-Sep-13 09:00N 39°52' W 075°13'0 0.0
2017-Sep-13 08:30N 39°52' W 075°13'0 0.0
2017-Sep-13 08:01N 39°52' W 075°13'0 0.0
2017-Sep-13 07:30N 39°52' W 075°13'0 0.2
2017-Sep-13 07:00N 39°52' W 075°14'0 0.2
2017-Sep-13 06:31N 39°52' W 075°14'0 0.0
2017-Sep-13 06:01N 39°52' W 075°14'0 0.0
2017-Sep-13 05:30N 39°52' W 075°14'0 0.0
2017-Sep-13 05:00N 39°52' W 075°14'0 0.0
2017-Sep-13 04:30N 39°52' W 075°14'0 0.0
2017-Sep-13 04:01N 39°52' W 075°14'0 0.0
2017-Sep-13 03:31N 39°52' W 075°14'0 0.0
2017-Sep-13 03:00N 39°52' W 075°14'0 0.0
2017-Sep-13 02:30N 39°52' W 075°14'0 0.1
2017-Sep-13 02:00N 39°52' W 075°14'0 0.1
2017-Sep-13 01:30N 39°52' W 075°14'0 0.1
2017-Sep-13 01:00N 39°52' W 075°14'0 0.2
2017-Sep-13 00:30N 39°52' W 075°13'0 0.2
2017-Sep-13 00:00N 39°52' W 075°13'0 0.0
2017-Sep-12 23:31N 39°52' W 075°13'0 0.0
2017-Sep-12 23:00N 39°52' W 075°13'0 0.0
2017-Sep-12 22:30N 39°52' W 075°13'0 0.0
2017-Sep-12 22:01N 39°52' W 075°13'0 0.0
2017-Sep-12 21:31N 39°52' W 075°13'0 0.0
2017-Sep-12 21:00N 39°52' W 075°13'0 0.0
2017-Sep-12 20:31N 39°52' W 075°13'0 0.0
2017-Sep-12 20:01N 39°52' W 075°13'0 0.0
2017-Sep-12 19:30N 39°52' W 075°13'0 0.0
2017-Sep-12 19:00N 39°52' W 075°13'0 0.0
2017-Sep-12 18:31N 39°52' W 075°13'0 0.1
2017-Sep-12 18:00N 39°52' W 075°13'0 0.3
2017-Sep-12 17:31N 39°52' W 075°14'0 0.1
2017-Sep-12 17:00N 39°52' W 075°14'0 0.0
2017-Sep-12 16:30N 39°52' W 075°14'0 0.1
2017-Sep-12 16:01N 39°52' W 075°14'0 0.0
2017-Sep-12 15:31N 39°52' W 075°14'0 0.0
2017-Sep-12 15:00N 39°52' W 075°14'0 0.0
2017-Sep-12 14:31N 39°52' W 075°14'0 0.0
2017-Sep-12 14:00N 39°52' W 075°14'0 0.0
2017-Sep-12 13:30N 39°52' W 075°14'0 0.0
2017-Sep-12 13:01N 39°52' W 075°14'0 0.1
2017-Sep-12 12:30N 39°52' W 075°14'0 0.1
2017-Sep-12 09:15N 39°52' W 075°13'0 0.0
2017-Sep-12 09:01N 39°52' W 075°13'0 0.0
2017-Sep-12 08:30N 39°52' W 075°13'0 0.0
2017-Sep-12 08:00N 39°52' W 075°13'0 0.0
2017-Sep-12 07:31N 39°52' W 075°13'0 0.0
2017-Sep-12 07:00N 39°52' W 075°13'0 0.0
2017-Sep-12 06:30N 39°52' W 075°13'0 0.1
2017-Sep-12 06:00N 39°52' W 075°13'0 0.3
2017-Sep-12 05:30N 39°52' W 075°14'0 0.1
2017-Sep-12 05:00N 39°52' W 075°14'0 0.0
2017-Sep-12 04:30N 39°52' W 075°14'0 0.0
2017-Sep-12 04:01N 39°52' W 075°14'0 0.0
2017-Sep-12 03:30N 39°52' W 075°14'0 0.0
2017-Sep-12 03:00N 39°52' W 075°14'0 0.0
2017-Sep-12 02:30N 39°52' W 075°14'0 0.0
2017-Sep-12 02:01N 39°52' W 075°14'0 0.0
2017-Sep-12 01:31N 39°52' W 075°14'0 0.0
2017-Sep-12 01:01N 39°52' W 075°14'0 0.0
2017-Sep-12 00:30N 39°52' W 075°14'0 0.1
2017-Sep-12 00:01N 39°52' W 075°14'0 0.2
2017-Sep-11 23:30N 39°52' W 075°14'0 0.2
2017-Sep-11 23:00N 39°52' W 075°13'0 0.1
2017-Sep-11 22:30N 39°52' W 075°13'0 0.0
2017-Sep-11 22:01N 39°52' W 075°13'0 0.0
2017-Sep-11 21:30N 39°52' W 075°13'0 0.0
2017-Sep-11 21:00N 39°52' W 075°13'0 0.0
2017-Sep-11 20:30N 39°52' W 075°13'0 0.0
2017-Sep-11 20:00N 39°52' W 075°13'0 0.0
2017-Sep-11 19:31N 39°52' W 075°13'0 0.0
2017-Sep-11 19:00N 39°52' W 075°13'0 0.0
2017-Sep-11 18:30N 39°52' W 075°13'0 0.1
2017-Sep-11 18:01N 39°52' W 075°13'0 0.2
2017-Sep-11 17:30N 39°52' W 075°14'0 0.2
2017-Sep-11 17:01N 39°52' W 075°14'0 0.0
2017-Sep-11 16:31N 39°52' W 075°14'0 0.0
2017-Sep-11 16:01N 39°52' W 075°14'0 0.0
2017-Sep-11 15:31N 39°52' W 075°14'  
Track history (hours):
 
Tides and Currents Weather Stations Pressure Air Temp Water Temp Dewpoint Dewpoint Depression Visibility Wind Speed Wind Dir Waves Ship Positions

Elk River

Owner: Vane Line Bunkering, Inc., Philadelphia, PA. More information available from US FCC via Universal Licensing System and Coast Guard Vessel Documentation Center.

Last reported at 2017-Sep-21 15:30 UTC. Time now 2017-Sep-21 15:48 UTC.
Position N 39°54' W 075°08'.

Length 38 m; draft 4.1 m.

Type: Towing. MMSI: 367419080.

Date/timePositionNaut miles runAvg speedWind from/ knotsBaromVisibWave heightAir tempDewpointWater temp
2017-Sep-21 15:30N 39°54' W 075°08'3 5.2
2017-Sep-21 15:01N 39°53' W 075°12'1 1.1
2017-Sep-21 14:30N 39°54' W 075°12'0 0.0
2017-Sep-21 14:00N 39°54' W 075°12'0 0.0
2017-Sep-21 13:31N 39°54' W 075°12'0 0.0
2017-Sep-21 13:01N 39°54' W 075°12'0 0.0
2017-Sep-21 12:30N 39°54' W 075°12'0 0.0
2017-Sep-21 12:00N 39°54' W 075°12'0 0.0
2017-Sep-21 11:30N 39°54' W 075°12'0 0.0
2017-Sep-21 11:00N 39°54' W 075°12'0 0.0
2017-Sep-21 10:31N 39°54' W 075°12'0 0.0
2017-Sep-21 10:00N 39°54' W 075°12'0 0.0
2017-Sep-21 09:31N 39°54' W 075°12'0 0.0
2017-Sep-21 09:01N 39°54' W 075°12'0 0.0
2017-Sep-21 08:31N 39°54' W 075°12'0 0.0
2017-Sep-21 08:00N 39°54' W 075°12'0 0.0
2017-Sep-21 07:30N 39°54' W 075°12'0 0.0
2017-Sep-21 07:01N 39°54' W 075°12'0 0.0
2017-Sep-21 06:30N 39°54' W 075°12'0 0.1
2017-Sep-21 06:00N 39°54' W 075°12'0 0.1
2017-Sep-21 05:30N 39°54' W 075°12'1 3.0
2017-Sep-21 05:01N 39°53' W 075°11'2 4.5
2017-Sep-21 04:31N 39°54' W 075°08'2 3.1
2017-Sep-21 04:00N 39°53' W 075°09'2 4.9
2017-Sep-21 03:31N 39°52' W 075°13'3 5.0
2017-Sep-21 03:00N 39°51' W 075°15'2 4.9
2017-Sep-21 02:30N 39°51' W 075°19'3 5.3
2017-Sep-21 02:00N 39°50' W 075°22'4 8.6
2017-Sep-21 01:30N 39°48' W 075°27'4 8.1
2017-Sep-21 01:00N 39°44' W 075°30'4 7.5
2017-Sep-21 00:31N 39°41' W 075°31'3 6.7
2017-Sep-21 00:00N 39°38' W 075°34'3 5.4
2017-Sep-20 23:30N 39°36' W 075°34'1 2.1
2017-Sep-20 23:00N 39°35' W 075°35'1 1.6
2017-Sep-20 22:30N 39°35' W 075°36'0 0.1
2017-Sep-20 22:00N 39°35' W 075°35'0 0.0
2017-Sep-20 21:30N 39°35' W 075°35'0 0.0
2017-Sep-20 21:00N 39°35' W 075°35'0 0.0
2017-Sep-20 20:30N 39°35' W 075°35'0 0.0
2017-Sep-20 20:00N 39°35' W 075°35'0 0.0
2017-Sep-20 19:30N 39°35' W 075°35'0 0.0
2017-Sep-20 19:00N 39°35' W 075°35'0 0.0
2017-Sep-20 18:30N 39°35' W 075°35'0 0.0
2017-Sep-20 18:00N 39°35' W 075°35'0 0.0
2017-Sep-20 17:30N 39°35' W 075°35'0 0.0
2017-Sep-20 17:00N 39°35' W 075°35'0 0.0
2017-Sep-20 16:30N 39°35' W 075°35'0 0.0
2017-Sep-20 16:00N 39°35' W 075°35'0 0.0
2017-Sep-20 15:30N 39°35' W 075°35'0 0.0
2017-Sep-20 15:00N 39°35' W 075°35'0 0.0
2017-Sep-20 14:00N 39°35' W 075°35'0 0.0
2017-Sep-20 13:30N 39°35' W 075°35'0 0.0
2017-Sep-20 13:00N 39°35' W 075°35'0 0.0
2017-Sep-20 12:30N 39°35' W 075°35'0 0.0
2017-Sep-20 12:00N 39°35' W 075°35'0 0.0
2017-Sep-20 11:30N 39°35' W 075°35'0 0.0
2017-Sep-20 11:00N 39°35' W 075°35'0 0.0
2017-Sep-20 10:30N 39°35' W 075°35'0 0.0
2017-Sep-20 10:00N 39°35' W 075°35'0 0.0
2017-Sep-20 09:30N 39°35' W 075°35'0 0.0
2017-Sep-20 09:00N 39°35' W 075°35'0 0.0
2017-Sep-20 08:30N 39°35' W 075°35'1 1.5
2017-Sep-20 08:00N 39°35' W 075°35'2 4.7
2017-Sep-20 07:30N 39°33' W 075°33'0 0.4
2017-Sep-20 07:00N 39°33' W 075°33'0 0.0
2017-Sep-20 06:30N 39°33' W 075°33'0 0.0
2017-Sep-20 06:00N 39°33' W 075°33'0 0.1
2017-Sep-20 05:30N 39°33' W 075°33'0 0.4
2017-Sep-20 05:00N 39°33' W 075°33'0 0.1
2017-Sep-20 04:30N 39°33' W 075°33'0 0.1
2017-Sep-20 04:00N 39°33' W 075°33'0 0.0
2017-Sep-20 03:30N 39°33' W 075°33'0 0.0
2017-Sep-20 03:00N 39°33' W 075°33'0 0.1
2017-Sep-20 02:30N 39°33' W 075°33'0 0.1
2017-Sep-20 02:00N 39°33' W 075°33'0 0.0
2017-Sep-20 01:30N 39°33' W 075°33'0 0.0
2017-Sep-20 01:00N 39°33' W 075°33'0 0.0
2017-Sep-20 00:30N 39°33' W 075°33'0 0.2
2017-Sep-20 00:00N 39°33' W 075°33'0 0.3
2017-Sep-19 23:30N 39°33' W 075°33'0 0.0
2017-Sep-19 23:00N 39°33' W 075°33'0 0.0
2017-Sep-19 22:30N 39°33' W 075°33'0 0.0
2017-Sep-19 22:00N 39°33' W 075°33'0 0.0
2017-Sep-19 21:30N 39°33' W 075°33'0 0.0
2017-Sep-19 21:00N 39°33' W 075°33'0 0.0
2017-Sep-19 20:30N 39°33' W 075°33'0 0.0
2017-Sep-19 20:00N 39°33' W 075°33'0 0.0
2017-Sep-19 19:30N 39°33' W 075°33'0 0.0
2017-Sep-19 19:00N 39°33' W 075°33'0 0.1
2017-Sep-19 18:30N 39°33' W 075°33'0 0.0
2017-Sep-19 18:00N 39°33' W 075°33'0 0.1
2017-Sep-19 17:30N 39°33' W 075°33'0 0.3
2017-Sep-19 17:00N 39°33' W 075°33'0 0.2
2017-Sep-19 16:30N 39°33' W 075°33'0 0.1
2017-Sep-19 16:00N 39°33' W 075°33'0 0.0
2017-Sep-19 15:30N 39°33' W 075°33'0 0.0
2017-Sep-19 15:00N 39°33' W 075°33'0 0.1
2017-Sep-19 14:30N 39°33' W 075°33'1 2.1
2017-Sep-19 14:00N 39°34' W 075°33'2 4.9
2017-Sep-19 13:30N 39°36' W 075°34'2 4.5
2017-Sep-19 13:00N 39°38' W 075°34'3 5.7
2017-Sep-19 12:30N 39°41' W 075°31'3 6.7
2017-Sep-19 12:00N 39°44' W 075°30'4 7.6
2017-Sep-19 11:30N 39°47' W 075°28'4 8.3
2017-Sep-19 11:00N 39°49' W 075°23'4 8.3
2017-Sep-19 10:30N 39°51' W 075°18'1 3.0
2017-Sep-19 10:01N 39°51' W 075°16'4 8.3
2017-Sep-19 09:30N 39°54' W 075°12'0 0.0
2017-Sep-19 09:01N 39°54' W 075°12'0 0.0
2017-Sep-19 08:30N 39°54' W 075°12'0 0.0
2017-Sep-19 08:01N 39°54' W 075°12'0 0.0
2017-Sep-19 07:30N 39°54' W 075°12'0 0.0
2017-Sep-19 07:00N 39°54' W 075°12'0 0.0
2017-Sep-19 06:30N 39°54' W 075°12'0 0.0
2017-Sep-19 06:00N 39°54' W 075°12'0 0.0
2017-Sep-19 05:31N 39°54' W 075°12'0 0.0
2017-Sep-19 05:00N 39°54' W 075°12'0 0.0
2017-Sep-19 04:30N 39°54' W 075°12'0 0.0
2017-Sep-19 04:00N 39°54' W 075°12'0 0.0
2017-Sep-19 03:31N 39°54' W 075°12'0 0.0
2017-Sep-19 03:00N 39°54' W 075°12'0 0.0
2017-Sep-19 02:30N 39°54' W 075°12'0 0.0
2017-Sep-19 02:00N 39°54' W 075°12'0 0.0
2017-Sep-19 01:30N 39°54' W 075°12'0 0.0
2017-Sep-19 01:00N 39°54' W 075°12'0 0.0
2017-Sep-19 00:31N 39°54' W 075°12'0 0.0
2017-Sep-19 00:00N 39°54' W 075°12'0 0.0
2017-Sep-18 23:30N 39°54' W 075°12'0 0.0
2017-Sep-18 23:00N 39°54' W 075°12'0 0.0
2017-Sep-18 22:30N 39°54' W 075°12'0 0.0
2017-Sep-18 22:00N 39°54' W 075°12'0 0.0
2017-Sep-18 21:31N 39°54' W 075°12'1 2.1
2017-Sep-18 21:00N 39°53' W 075°12'4 7.1
2017-Sep-18 20:30N 39°51' W 075°16'0 0.3
2017-Sep-18 20:01N 39°51' W 075°16'3 5.2
2017-Sep-18 19:30N 39°52' W 075°13'0 0.2
2017-Sep-18 19:00N 39°52' W 075°13'0 0.0
2017-Sep-18 18:30N 39°52' W 075°13'0 0.1
2017-Sep-18 18:00N 39°52' W 075°13'0 0.3
2017-Sep-18 17:30N 39°52' W 075°13'0 0.1
2017-Sep-18 17:01N 39°52' W 075°13'0 0.0
2017-Sep-18 16:30N 39°52' W 075°13'0 0.0
2017-Sep-18 16:00N 39°52' W 075°13'0 0.0
2017-Sep-18 15:30N 39°52' W 075°13'0 0.0
2017-Sep-18 15:00N 39°52' W 075°13'0 0.0
2017-Sep-18 14:30N 39°52' W 075°13'0 0.0
2017-Sep-18 14:00N 39°52' W 075°13'0 0.0
2017-Sep-18 13:30N 39°52' W 075°13'0 0.3
2017-Sep-18 13:00N 39°52' W 075°13'0 0.1
2017-Sep-18 12:31N 39°52' W 075°13'0 0.0
2017-Sep-18 12:01N 39°52' W 075°13'0 0.0
2017-Sep-18 11:30N 39°52' W 075°13'0 0.0
2017-Sep-18 11:00N 39°52' W 075°13'0 0.0
2017-Sep-18 10:30N 39°52' W 075°13'0 0.0
2017-Sep-18 10:00N 39°52' W 075°13'0 0.0
2017-Sep-18 09:31N 39°52' W 075°13'0 0.0
2017-Sep-18 09:01N 39°52' W 075°13'0 0.0
2017-Sep-18 08:30N 39°52' W 075°13'0 0.0
2017-Sep-18 08:00N 39°52' W 075°13'0 0.0
2017-Sep-18 07:31N 39°52' W 075°13'0 0.0
2017-Sep-18 07:00N 39°52' W 075°13'0 0.0
2017-Sep-18 06:31N 39°52' W 075°13'0 0.0
2017-Sep-18 06:00N 39°52' W 075°13'0 0.1
2017-Sep-18 05:31N 39°52' W 075°13'0 0.3
2017-Sep-18 05:01N 39°52' W 075°13'0 0.1
2017-Sep-18 04:30N 39°52' W 075°13'0 0.0
2017-Sep-18 04:00N 39°52' W 075°13'0 0.0
2017-Sep-18 03:31N 39°52' W 075°13'0 0.0
2017-Sep-18 03:00N 39°52' W 075°13'0 0.0
2017-Sep-18 02:30N 39°52' W 075°13'0 0.0
2017-Sep-18 02:01N 39°52' W 075°13'0 0.0
2017-Sep-18 01:30N 39°52' W 075°13'0 0.0
2017-Sep-18 01:00N 39°52' W 075°13'0 0.0
2017-Sep-18 00:30N 39°52' W 075°13'0 0.1
2017-Sep-18 00:01N 39°52' W 075°13'0 0.2
2017-Sep-17 23:30N 39°52' W 075°13'0 0.1
2017-Sep-17 23:00N 39°52' W 075°13'0 0.0
2017-Sep-17 22:30N 39°52' W 075°13'0 0.0
2017-Sep-17 22:00N 39°52' W 075°13'0 0.0
2017-Sep-17 21:30N 39°52' W 075°13'0 0.0
2017-Sep-17 21:00N 39°52' W 075°13'0 0.0
2017-Sep-17 20:30N 39°52' W 075°13'0 0.1
2017-Sep-17 20:00N 39°52' W 075°13'0 0.0
2017-Sep-17 19:30N 39°52' W 075°13'0 0.0
2017-Sep-17 19:00N 39°52' W 075°13'0 0.0
2017-Sep-17 18:30N 39°52' W 075°13'0 0.0
2017-Sep-17 18:00N 39°52' W 075°13'0 0.0
2017-Sep-17 17:30N 39°52' W 075°13'0 0.0
2017-Sep-17 17:00N 39°52' W 075°13'0 0.3
2017-Sep-17 16:30N 39°52' W 075°13'0 0.1
2017-Sep-17 16:00N 39°52' W 075°13'0 0.0
2017-Sep-17 15:30N 39°52' W 075°13'0 0.0
2017-Sep-17 15:00N 39°52' W 075°13'0 0.0
2017-Sep-17 14:31N 39°52' W 075°13'0 0.0
2017-Sep-17 14:01N 39°52' W 075°13'0 0.0
2017-Sep-17 13:30N 39°52' W 075°13'0 0.0
2017-Sep-17 13:00N 39°52' W 075°13'0 0.0
2017-Sep-17 12:30N 39°52' W 075°13'0 0.0
2017-Sep-17 12:01N 39°52' W 075°13'0 0.2
2017-Sep-17 11:30N 39°52' W 075°13'0 0.1
2017-Sep-17 11:01N 39°52' W 075°13'0 0.0
2017-Sep-17 10:31N 39°52' W 075°13'0 0.1
2017-Sep-17 10:00N 39°52' W 075°13'0 0.0
2017-Sep-17 09:31N 39°52' W 075°13'0 0.0
2017-Sep-17 09:00N 39°52' W 075°13'0 0.0
2017-Sep-17 08:30N 39°52' W 075°13'0 0.0
2017-Sep-17 08:01N 39°52' W 075°13'0 0.0
2017-Sep-17 07:30N 39°52' W 075°13'0 0.0
2017-Sep-17 07:01N 39°52' W 075°13'0 0.0
2017-Sep-17 06:31N 39°52' W 075°13'0 0.1
2017-Sep-17 06:01N 39°52' W 075°13'0 0.1
2017-Sep-17 05:30N 39°52' W 075°13'0 0.0
2017-Sep-17 05:01N 39°52' W 075°13'0 0.2
2017-Sep-17 04:31N 39°52' W 075°13'0 0.1
2017-Sep-17 04:00N 39°52' W 075°13'0 0.0
2017-Sep-17 03:30N 39°52' W 075°13'0 0.0
2017-Sep-17 03:00N 39°52' W 075°13'0 0.0
2017-Sep-17 02:30N 39°52' W 075°13'0 0.0
2017-Sep-17 02:00N 39°52' W 075°13'0 0.0
2017-Sep-17 01:31N 39°52' W 075°13'0 0.0
2017-Sep-17 01:00N 39°52' W 075°13'0 0.0
2017-Sep-17 00:31N 39°52' W 075°13'0 0.1
2017-Sep-17 00:01N 39°52' W 075°13'0 0.1
2017-Sep-16 23:30N 39°52' W 075°13'0 0.2
2017-Sep-16 23:00N 39°52' W 075°13'0 0.1
2017-Sep-16 22:31N 39°52' W 075°13'0 0.2
2017-Sep-16 22:00N 39°52' W 075°13'0 0.1
2017-Sep-16 21:30N 39°52' W 075°13'0 0.0
2017-Sep-16 21:00N 39°52' W 075°13'0 0.0
2017-Sep-16 20:30N 39°52' W 075°13'0 0.0
2017-Sep-16 20:00N 39°52' W 075°13'0 0.0
2017-Sep-16 19:30N 39°52' W 075°13'0 0.0
2017-Sep-16 19:00N 39°52' W 075°13'0 0.0
2017-Sep-16 18:30N 39°52' W 075°13'0 0.0
2017-Sep-16 18:00N 39°52' W 075°13'0 0.0
2017-Sep-16 17:30N 39°52' W 075°13'0 0.0
2017-Sep-16 17:00N 39°52' W 075°13'0 0.5
2017-Sep-16 16:30N 39°52' W 075°14'0 0.2
2017-Sep-16 16:00N 39°52' W 075°13'0 0.2
2017-Sep-16 15:30N 39°52' W 075°13'0 0.1
2017-Sep-16 15:00N 39°52' W 075°13'0 0.0
2017-Sep-16 14:30N 39°52' W 075°13'0 0.0
2017-Sep-16 14:01N 39°52' W 075°13'0 0.0
2017-Sep-16 13:30N 39°52' W 075°13'0 0.0
2017-Sep-16 13:00N 39°52' W 075°13'0 0.0
2017-Sep-16 12:30N 39°52' W 075°13'0 0.1
2017-Sep-16 12:01N 39°52' W 075°13'0 0.0
2017-Sep-16 11:30N 39°52' W 075°13'0 0.0
2017-Sep-16 11:01N 39°52' W 075°13'0 0.3
2017-Sep-16 10:31N 39°52' W 075°14'0 0.1
2017-Sep-16 10:01N 39°52' W 075°14'0 0.0
2017-Sep-16 09:31N 39°52' W 075°14'0 0.0
2017-Sep-16 09:01N 39°52' W 075°14'0 0.0
2017-Sep-16 08:31N 39°52' W 075°14'0 0.0
2017-Sep-16 08:01N 39°52' W 075°14'0 0.0
2017-Sep-16 07:31N 39°52' W 075°14'0 0.0
2017-Sep-16 07:01N 39°52' W 075°14'0 0.0
2017-Sep-16 06:30N 39°52' W 075°14'0 0.0
2017-Sep-16 06:00N 39°52' W 075°14'0 0.0
2017-Sep-16 05:31N 39°52' W 075°14'0 0.0
2017-Sep-16 05:00N 39°52' W 075°14'0 0.0
2017-Sep-16 04:30N 39°52' W 075°14'0 0.1
2017-Sep-16 04:00N 39°52' W 075°14'0 0.2
2017-Sep-16 03:30N 39°52' W 075°13'0 0.1
2017-Sep-16 03:01N 39°52' W 075°13'0 0.0
2017-Sep-16 02:30N 39°52' W 075°13'0 0.0
2017-Sep-16 02:01N 39°52' W 075°13'0 0.0
2017-Sep-16 01:31N 39°52' W 075°13'0 0.0
2017-Sep-16 01:00N 39°52' W 075°13'0 0.0
2017-Sep-16 00:30N 39°52' W 075°13'0 0.0
2017-Sep-16 00:01N 39°52' W 075°13'0 0.0
2017-Sep-15 23:30N 39°52' W 075°13'0 0.0
2017-Sep-15 23:00N 39°52' W 075°13'0 0.0
2017-Sep-15 22:30N 39°52' W 075°13'1 2.8
2017-Sep-15 22:01N 39°53' W 075°12'1 1.9
2017-Sep-15 21:30N 39°54' W 075°12'0 0.2
2017-Sep-15 21:00N 39°54' W 075°12'0 0.0
2017-Sep-15 20:30N 39°54' W 075°12'0 0.0
2017-Sep-15 20:00N 39°54' W 075°12'0 0.0
2017-Sep-15 19:30N 39°54' W 075°12'0 0.0
2017-Sep-15 19:00N 39°54' W 075°12'0 0.0
2017-Sep-15 18:30N 39°54' W 075°12'0 0.0
2017-Sep-15 18:00N 39°54' W 075°12'0 0.0
2017-Sep-15 17:30N 39°54' W 075°12'0 0.0
2017-Sep-15 17:01N 39°54' W 075°12'0 0.0
2017-Sep-15 16:30N 39°54' W 075°12'0 0.0
2017-Sep-15 16:00N 39°54' W 075°12'0 0.0
2017-Sep-15 15:30N 39°54' W 075°12'0 0.0
2017-Sep-15 15:01N 39°54' W 075°12'0 0.0
2017-Sep-15 14:30N 39°54' W 075°12'0 0.0
2017-Sep-15 14:00N 39°54' W 075°12'0 0.0
2017-Sep-15 13:30N 39°54' W 075°12'0 0.0
2017-Sep-15 13:00N 39°54' W 075°12'0 0.0
2017-Sep-15 12:30N 39°54' W 075°12'0 0.0
2017-Sep-15 12:01N 39°54' W 075°12'0 0.0
2017-Sep-15 11:30N 39°54' W 075°12'0 0.0
2017-Sep-15 11:00N 39°54' W 075°12'0 0.0
2017-Sep-15 10:31N 39°54' W 075°12'0 0.0
2017-Sep-15 10:00N 39°54' W 075°12'0 0.0
2017-Sep-15 09:30N 39°54' W 075°12'0 0.0
2017-Sep-15 09:00N 39°54' W 075°12'0 0.2
2017-Sep-15 08:31N 39°54' W 075°12'0 0.1
2017-Sep-15 08:00N 39°54' W 075°12'0 0.2
2017-Sep-15 07:30N 39°54' W 075°12'0 0.0
2017-Sep-15 07:00N 39°54' W 075°12'0 0.0
2017-Sep-15 06:31N 39°54' W 075°12'0 0.0
2017-Sep-15 06:00N 39°54' W 075°12'0 0.0
2017-Sep-15 05:30N 39°54' W 075°12'0 0.0
2017-Sep-15 04:58N 39°54' W 075°12'0 0.0
2017-Sep-15 04:29N 39°54' W 075°12'0 0.0
2017-Sep-15 04:00N 39°54' W 075°12'0 0.0
2017-Sep-15 03:30N 39°54' W 075°12'0 0.0
2017-Sep-15 03:00N 39°54' W 075°12'0 0.0
2017-Sep-15 02:30N 39°54' W 075°12'0 0.0
2017-Sep-15 02:00N 39°54' W 075°12'0 0.0
2017-Sep-15 01:30N 39°54' W 075°12'0 0.0
2017-Sep-15 01:00N 39°54' W 075°12'0 0.0
2017-Sep-15 00:30N 39°54' W 075°12'0 0.0
2017-Sep-15 00:00N 39°54' W 075°12'0 0.0
2017-Sep-14 23:30N 39°54' W 075°12'0 0.0
2017-Sep-14 23:00N 39°54' W 075°12'0 0.0
2017-Sep-14 22:30N 39°54' W 075°12'0 0.0
2017-Sep-14 22:00N 39°54' W 075°12'0 0.0
2017-Sep-14 21:30N 39°54' W 075°12'0 0.0
2017-Sep-14 21:00N 39°54' W 075°12'0 0.0
2017-Sep-14 20:30N 39°54' W 075°12'0 0.0
2017-Sep-14 20:00N 39°54' W 075°12'0 0.0
2017-Sep-14 19:30N 39°54' W 075°12'0 0.0
2017-Sep-14 19:00N 39°54' W 075°12'0 0.0
2017-Sep-14 18:30N 39°54' W 075°12'0 0.0
2017-Sep-14 18:00N 39°54' W 075°12'0 0.0
2017-Sep-14 17:30N 39°54' W 075°12'0 0.0
2017-Sep-14 17:00N 39°54' W 075°12'0 0.0
2017-Sep-14 16:30N 39°54' W 075°12'0 0.0
2017-Sep-14 16:00N 39°54' W 075°12'0 0.0
2017-Sep-14 15:30N 39°54' W 075°12'0 0.0
2017-Sep-14 15:00N 39°54' W 075°12'0 0.0
2017-Sep-14 14:30N 39°54' W 075°12'0 0.0
2017-Sep-14 14:01N 39°54' W 075°12'0 0.0
2017-Sep-14 13:30N 39°54' W 075°12'0 0.0
2017-Sep-14 13:00N 39°54' W 075°12'0 0.1
2017-Sep-14 12:30N 39°54' W 075°12'0 0.0
2017-Sep-14 12:01N 39°54' W 075°12'0 0.0
2017-Sep-14 11:30N 39°54' W 075°12'0 0.2
2017-Sep-14 11:00N 39°54' W 075°12'2 4.5
2017-Sep-14 10:31N 39°52' W 075°13'0 0.1
2017-Sep-14 10:01N 39°52' W 075°13'0 0.0
2017-Sep-14 09:31N 39°52' W 075°13'0 0.0
2017-Sep-14 09:00N 39°52' W 075°13'0 0.0
2017-Sep-14 08:30N 39°52' W 075°13'0 0.3
2017-Sep-14 08:00N 39°52' W 075°14'0 0.1
2017-Sep-14 07:30N 39°52' W 075°14'0 0.0
2017-Sep-14 07:00N 39°52' W 075°14'0 0.0
2017-Sep-14 06:30N 39°52' W 075°14'0 0.0
2017-Sep-14 06:01N 39°52' W 075°14'0 0.0
2017-Sep-14 05:30N 39°52' W 075°14'0 0.0
2017-Sep-14 05:01N 39°52' W 075°14'0 0.0
2017-Sep-14 04:30N 39°52' W 075°14'0 0.0
2017-Sep-14 04:00N 39°52' W 075°14'0 0.0
2017-Sep-14 03:31N 39°52' W 075°14'0 0.0
2017-Sep-14 03:00N 39°52' W 075°14'0 0.0
2017-Sep-14 02:31N 39°52' W 075°14'0 0.0
2017-Sep-14 02:00N 39°52' W 075°14'0 0.1
2017-Sep-14 01:31N 39°52' W 075°14'0 0.2
2017-Sep-14 01:01N 39°52' W 075°13'0 0.1
2017-Sep-14 00:30N 39°52' W 075°13'0 0.0
2017-Sep-14 00:01N 39°52' W 075°13'0 0.0
2017-Sep-13 23:30N 39°52' W 075°13'0 0.0
2017-Sep-13 23:00N 39°52' W 075°13'0 0.0
2017-Sep-13 22:31N 39°52' W 075°13'0 0.0
2017-Sep-13 22:00N 39°52' W 075°13'0 0.0
2017-Sep-13 21:31N 39°52' W 075°13'0 0.0
2017-Sep-13 21:00N 39°52' W 075°13'0 0.0
2017-Sep-13 20:31N 39°52' W 075°13'0 0.1
2017-Sep-13 20:00N 39°52' W 075°13'0 0.0
2017-Sep-13 19:30N 39°52' W 075°13'0 0.3
2017-Sep-13 19:01N 39°52' W 075°14'0 0.1
2017-Sep-13 18:31N 39°52' W 075°14'0 0.0
2017-Sep-13 18:00N 39°52' W 075°14'0 0.0
2017-Sep-13 17:30N 39°52' W 075°14'0 0.0
2017-Sep-13 17:00N 39°52' W 075°14'0 0.0
2017-Sep-13 16:31N 39°52' W 075°14'0 0.1
2017-Sep-13 16:01N 39°52' W 075°14'0 0.0
2017-Sep-13 15:31N 39°52' W 075°14'0 0.1
2017-Sep-13 15:01N 39°52' W 075°14'0 0.0
2017-Sep-13 14:31N 39°52' W 075°14'0 0.1
2017-Sep-13 14:01N 39°52' W 075°14'0 0.0
2017-Sep-13 13:31N 39°52' W 075°14'0 0.1
2017-Sep-13 13:00N 39°52' W 075°14'0 0.2
2017-Sep-13 12:30N 39°52' W 075°13'0 0.1
2017-Sep-13 12:00N 39°52' W 075°13'0 0.0
2017-Sep-13 11:30N 39°52' W 075°13'0 0.0
2017-Sep-13 11:01N 39°52' W 075°13'0 0.0
2017-Sep-13 10:31N 39°52' W 075°13'0 0.0
2017-Sep-13 10:01N 39°52' W 075°13'0 0.0
2017-Sep-13 09:30N 39°52' W 075°13'0 0.0
2017-Sep-13 09:00N 39°52' W 075°13'0 0.0
2017-Sep-13 08:30N 39°52' W 075°13'0 0.0
2017-Sep-13 08:01N 39°52' W 075°13'0 0.0
2017-Sep-13 07:30N 39°52' W 075°13'0 0.2
2017-Sep-13 07:00N 39°52' W 075°14'0 0.2
2017-Sep-13 06:31N 39°52' W 075°14'0 0.0
2017-Sep-13 06:01N 39°52' W 075°14'0 0.0
2017-Sep-13 05:30N 39°52' W 075°14'0 0.0
2017-Sep-13 05:00N 39°52' W 075°14'0 0.0
2017-Sep-13 04:30N 39°52' W 075°14'0 0.0
2017-Sep-13 04:01N 39°52' W 075°14'0 0.0
2017-Sep-13 03:31N 39°52' W 075°14'0 0.0
2017-Sep-13 03:00N 39°52' W 075°14'0 0.0
2017-Sep-13 02:30N 39°52' W 075°14'0 0.1
2017-Sep-13 02:00N 39°52' W 075°14'0 0.1
2017-Sep-13 01:30N 39°52' W 075°14'0 0.1
2017-Sep-13 01:00N 39°52' W 075°14'0 0.2
2017-Sep-13 00:30N 39°52' W 075°13'0 0.2
2017-Sep-13 00:00N 39°52' W 075°13'0 0.0
2017-Sep-12 23:31N 39°52' W 075°13'0 0.0
2017-Sep-12 23:00N 39°52' W 075°13'0 0.0
2017-Sep-12 22:30N 39°52' W 075°13'0 0.0
2017-Sep-12 22:01N 39°52' W 075°13'0 0.0
2017-Sep-12 21:31N 39°52' W 075°13'0 0.0
2017-Sep-12 21:00N 39°52' W 075°13'0 0.0
2017-Sep-12 20:31N 39°52' W 075°13'0 0.0
2017-Sep-12 20:01N 39°52' W 075°13'0 0.0
2017-Sep-12 19:30N 39°52' W 075°13'0 0.0
2017-Sep-12 19:00N 39°52' W 075°13'0 0.0
2017-Sep-12 18:31N 39°52' W 075°13'0 0.1
2017-Sep-12 18:00N 39°52' W 075°13'0 0.3
2017-Sep-12 17:31N 39°52' W 075°14'0 0.1
2017-Sep-12 17:00N 39°52' W 075°14'0 0.0
2017-Sep-12 16:30N 39°52' W 075°14'0 0.1
2017-Sep-12 16:01N 39°52' W 075°14'0 0.0
2017-Sep-12 15:31N 39°52' W 075°14'0 0.0
2017-Sep-12 15:00N 39°52' W 075°14'0 0.0
2017-Sep-12 14:31N 39°52' W 075°14'0 0.0
2017-Sep-12 14:00N 39°52' W 075°14'0 0.0
2017-Sep-12 13:30N 39°52' W 075°14'0 0.0
2017-Sep-12 13:01N 39°52' W 075°14'0 0.1
2017-Sep-12 12:30N 39°52' W 075°14'0 0.1
2017-Sep-12 09:15N 39°52' W 075°13'0 0.0
2017-Sep-12 09:01N 39°52' W 075°13'0 0.0
2017-Sep-12 08:30N 39°52' W 075°13'0 0.0
2017-Sep-12 08:00N 39°52' W 075°13'0 0.0
2017-Sep-12 07:31N 39°52' W 075°13'0 0.0
2017-Sep-12 07:00N 39°52' W 075°13'0 0.0
2017-Sep-12 06:30N 39°52' W 075°13'0 0.1
2017-Sep-12 06:00N 39°52' W 075°13'0 0.3
2017-Sep-12 05:30N 39°52' W 075°14'0 0.1
2017-Sep-12 05:00N 39°52' W 075°14'0 0.0
2017-Sep-12 04:30N 39°52' W 075°14'0 0.0
2017-Sep-12 04:01N 39°52' W 075°14'0 0.0
2017-Sep-12 03:30N 39°52' W 075°14'0 0.0
2017-Sep-12 03:00N 39°52' W 075°14'0 0.0
2017-Sep-12 02:30N 39°52' W 075°14'0 0.0
2017-Sep-12 02:01N 39°52' W 075°14'0 0.0
2017-Sep-12 01:31N 39°52' W 075°14'0 0.0
2017-Sep-12 01:01N 39°52' W 075°14'0 0.0
2017-Sep-12 00:30N 39°52' W 075°14'0 0.1
2017-Sep-12 00:01N 39°52' W 075°14'0 0.2
2017-Sep-11 23:30N 39°52' W 075°14'0 0.2
2017-Sep-11 23:00N 39°52' W 075°13'0 0.1
2017-Sep-11 22:30N 39°52' W 075°13'0 0.0
2017-Sep-11 22:01N 39°52' W 075°13'0 0.0
2017-Sep-11 21:30N 39°52' W 075°13'0 0.0
2017-Sep-11 21:00N 39°52' W 075°13'0 0.0
2017-Sep-11 20:30N 39°52' W 075°13'0 0.0
2017-Sep-11 20:00N 39°52' W 075°13'0 0.0
2017-Sep-11 19:31N 39°52' W 075°13'0 0.0
2017-Sep-11 19:00N 39°52' W 075°13'0 0.0
2017-Sep-11 18:30N 39°52' W 075°13'0 0.1
2017-Sep-11 18:01N 39°52' W 075°13'0 0.2
2017-Sep-11 17:30N 39°52' W 075°14'0 0.2
2017-Sep-11 17:01N 39°52' W 075°14'0 0.0
2017-Sep-11 16:31N 39°52' W 075°14'0 0.0
2017-Sep-11 16:01N 39°52' W 075°14'0 0.0
2017-Sep-11 15:31N 39°52' W 075°14'  

Dump ship's entire track history